sensor_id;sensor_type;location;lat;lon;timestamp;P1;durP1;ratioP1;P2;durP2;ratioP2
53115;SDS011;39010;48.088;7.954;2022-12-15T00:01:57;51.30;;;23.20;;
53115;SDS011;39010;48.088;7.954;2022-12-15T00:04:44;48.17;;;23.02;;
53115;SDS011;39010;48.088;7.954;2022-12-15T00:07:29;50.13;;;23.08;;
53115;SDS011;39010;48.088;7.954;2022-12-15T00:10:14;48.63;;;22.40;;
53115;SDS011;39010;48.088;7.954;2022-12-15T00:13:00;47.70;;;22.27;;
53115;SDS011;39010;48.088;7.954;2022-12-15T00:15:45;46.67;;;21.83;;
53115;SDS011;39010;48.088;7.954;2022-12-15T00:18:31;47.72;;;21.63;;
53115;SDS011;39010;48.088;7.954;2022-12-15T00:21:17;52.58;;;22.48;;
53115;SDS011;39010;48.088;7.954;2022-12-15T00:24:02;42.75;;;20.60;;
53115;SDS011;39010;48.088;7.954;2022-12-15T00:26:46;43.00;;;20.60;;
53115;SDS011;39010;48.088;7.954;2022-12-15T00:29:31;43.83;;;20.52;;
53115;SDS011;39010;48.088;7.954;2022-12-15T00:32:16;43.53;;;19.85;;
53115;SDS011;39010;48.088;7.954;2022-12-15T00:35:01;38.70;;;18.80;;
53115;SDS011;39010;48.088;7.954;2022-12-15T00:37:46;40.20;;;18.85;;
53115;SDS011;39010;48.088;7.954;2022-12-15T00:40:31;37.47;;;18.00;;
53115;SDS011;39010;48.088;7.954;2022-12-15T00:42:58;38.03;;;18.95;;
53115;SDS011;39010;48.088;7.954;2022-12-15T00:48:11;38.38;;;18.38;;
53115;SDS011;39010;48.088;7.954;2022-12-15T00:50:37;39.78;;;19.00;;
53115;SDS011;39010;48.088;7.954;2022-12-15T00:53:19;39.63;;;19.33;;
53115;SDS011;39010;48.088;7.954;2022-12-15T00:56:06;39.00;;;18.77;;
53115;SDS011;39010;48.088;7.954;2022-12-15T00:58:52;41.88;;;19.58;;
53115;SDS011;39010;48.088;7.954;2022-12-15T01:01:37;37.13;;;18.40;;
53115;SDS011;39010;48.088;7.954;2022-12-15T01:04:23;44.72;;;20.45;;
53115;SDS011;39010;48.088;7.954;2022-12-15T01:07:09;44.22;;;20.90;;
53115;SDS011;39010;48.088;7.954;2022-12-15T01:09:54;42.47;;;19.45;;
53115;SDS011;39010;48.088;7.954;2022-12-15T01:12:39;37.80;;;17.92;;
53115;SDS011;39010;48.088;7.954;2022-12-15T01:15:25;40.05;;;19.60;;
53115;SDS011;39010;48.088;7.954;2022-12-15T01:18:10;41.30;;;19.17;;
53115;SDS011;39010;48.088;7.954;2022-12-15T01:21:00;40.72;;;19.58;;
53115;SDS011;39010;48.088;7.954;2022-12-15T01:23:29;42.10;;;20.58;;
53115;SDS011;39010;48.088;7.954;2022-12-15T01:25:57;46.30;;;21.55;;
53115;SDS011;39010;48.088;7.954;2022-12-15T01:28:23;45.08;;;20.85;;
53115;SDS011;39010;48.088;7.954;2022-12-15T01:30:50;44.80;;;20.73;;
53115;SDS011;39010;48.088;7.954;2022-12-15T01:35:43;48.13;;;20.83;;
53115;SDS011;39010;48.088;7.954;2022-12-15T01:38:10;48.00;;;20.88;;
53115;SDS011;39010;48.088;7.954;2022-12-15T01:40:37;47.17;;;21.67;;
53115;SDS011;39010;48.088;7.954;2022-12-15T01:43:18;50.50;;;23.45;;
53115;SDS011;39010;48.088;7.954;2022-12-15T01:56:08;47.15;;;21.08;;
53115;SDS011;39010;48.088;7.954;2022-12-15T01:58:36;52.10;;;22.48;;
53115;SDS011;39010;48.088;7.954;2022-12-15T02:01:07;45.17;;;20.33;;
53115;SDS011;39010;48.088;7.954;2022-12-15T02:03:34;46.42;;;22.20;;
53115;SDS011;39010;48.088;7.954;2022-12-15T02:06:03;51.15;;;22.95;;
53115;SDS011;39010;48.088;7.954;2022-12-15T02:08:30;44.58;;;20.80;;
53115;SDS011;39010;48.088;7.954;2022-12-15T02:11:06;46.47;;;21.55;;
53115;SDS011;39010;48.088;7.954;2022-12-15T02:13:53;51.28;;;22.27;;
53115;SDS011;39010;48.088;7.954;2022-12-15T02:16:32;54.47;;;22.73;;
53115;SDS011;39010;48.088;7.954;2022-12-15T02:19:17;52.85;;;23.60;;
53115;SDS011;39010;48.088;7.954;2022-12-15T02:27:43;69.38;;;27.77;;
53115;SDS011;39010;48.088;7.954;2022-12-15T02:30:23;56.50;;;24.05;;
53115;SDS011;39010;48.088;7.954;2022-12-15T02:36:08;55.97;;;24.50;;
53115;SDS011;39010;48.088;7.954;2022-12-15T02:38:50;57.10;;;24.25;;
53115;SDS011;39010;48.088;7.954;2022-12-15T02:43:58;59.90;;;24.95;;
53115;SDS011;39010;48.088;7.954;2022-12-15T02:46:40;52.20;;;23.13;;
53115;SDS011;39010;48.088;7.954;2022-12-15T02:52:01;56.00;;;22.60;;
53115;SDS011;39010;48.088;7.954;2022-12-15T02:57:53;56.38;;;23.95;;
53115;SDS011;39010;48.088;7.954;2022-12-15T03:00:27;53.60;;;22.90;;
53115;SDS011;39010;48.088;7.954;2022-12-15T03:02:58;56.70;;;23.85;;
53115;SDS011;39010;48.088;7.954;2022-12-15T03:05:25;61.58;;;25.13;;
53115;SDS011;39010;48.088;7.954;2022-12-15T03:10:20;51.65;;;22.77;;
53115;SDS011;39010;48.088;7.954;2022-12-15T03:12:50;58.67;;;23.95;;
53115;SDS011;39010;48.088;7.954;2022-12-15T03:15:17;56.70;;;23.42;;
53115;SDS011;39010;48.088;7.954;2022-12-15T03:17:44;59.00;;;24.77;;
53115;SDS011;39010;48.088;7.954;2022-12-15T03:20:11;57.97;;;24.67;;
53115;SDS011;39010;48.088;7.954;2022-12-15T03:22:39;53.70;;;22.58;;
53115;SDS011;39010;48.088;7.954;2022-12-15T03:25:06;57.20;;;23.00;;
53115;SDS011;39010;48.088;7.954;2022-12-15T03:27:33;54.60;;;23.40;;
53115;SDS011;39010;48.088;7.954;2022-12-15T03:30:00;56.58;;;24.83;;
53115;SDS011;39010;48.088;7.954;2022-12-15T03:34:53;55.97;;;22.92;;
53115;SDS011;39010;48.088;7.954;2022-12-15T03:37:21;48.53;;;21.52;;
53115;SDS011;39010;48.088;7.954;2022-12-15T03:39:47;61.15;;;24.27;;
53115;SDS011;39010;48.088;7.954;2022-12-15T03:42:15;55.63;;;22.50;;
53115;SDS011;39010;48.088;7.954;2022-12-15T03:45:01;58.13;;;23.83;;
53115;SDS011;39010;48.088;7.954;2022-12-15T03:47:28;55.97;;;23.88;;
53115;SDS011;39010;48.088;7.954;2022-12-15T03:49:54;61.15;;;24.95;;
53115;SDS011;39010;48.088;7.954;2022-12-15T03:52:21;54.90;;;23.65;;
53115;SDS011;39010;48.088;7.954;2022-12-15T03:54:47;64.68;;;23.65;;
53115;SDS011;39010;48.088;7.954;2022-12-15T03:57:13;56.22;;;24.10;;
53115;SDS011;39010;48.088;7.954;2022-12-15T04:02:07;57.92;;;23.23;;
53115;SDS011;39010;48.088;7.954;2022-12-15T04:04:35;60.25;;;23.27;;
53115;SDS011;39010;48.088;7.954;2022-12-15T04:07:02;63.10;;;25.27;;
53115;SDS011;39010;48.088;7.954;2022-12-15T04:09:28;60.45;;;24.15;;
53115;SDS011;39010;48.088;7.954;2022-12-15T04:11:55;58.40;;;24.55;;
53115;SDS011;39010;48.088;7.954;2022-12-15T04:14:21;57.10;;;23.45;;
53115;SDS011;39010;48.088;7.954;2022-12-15T04:16:47;58.90;;;23.98;;
53115;SDS011;39010;48.088;7.954;2022-12-15T04:19:14;56.38;;;24.58;;
53115;SDS011;39010;48.088;7.954;2022-12-15T04:21:59;62.72;;;25.33;;
53115;SDS011;39010;48.088;7.954;2022-12-15T04:24:28;62.05;;;25.48;;
53115;SDS011;39010;48.088;7.954;2022-12-15T04:27:14;58.25;;;24.95;;
53115;SDS011;39010;48.088;7.954;2022-12-15T04:29:59;67.00;;;26.92;;
53115;SDS011;39010;48.088;7.954;2022-12-15T04:32:44;71.82;;;27.38;;
53115;SDS011;39010;48.088;7.954;2022-12-15T04:35:30;65.70;;;27.08;;
53115;SDS011;39010;48.088;7.954;2022-12-15T04:38:19;67.90;;;27.55;;
53115;SDS011;39010;48.088;7.954;2022-12-15T04:41:15;67.03;;;27.25;;
53115;SDS011;39010;48.088;7.954;2022-12-15T04:46:48;61.65;;;26.83;;
53115;SDS011;39010;48.088;7.954;2022-12-15T04:49:33;65.25;;;27.17;;
53115;SDS011;39010;48.088;7.954;2022-12-15T04:52:18;70.80;;;27.85;;
53115;SDS011;39010;48.088;7.954;2022-12-15T04:55:04;72.38;;;29.98;;
53115;SDS011;39010;48.088;7.954;2022-12-15T04:57:49;73.78;;;31.60;;
53115;SDS011;39010;48.088;7.954;2022-12-15T05:00:34;72.22;;;29.73;;
53115;SDS011;39010;48.088;7.954;2022-12-15T05:03:20;76.28;;;30.55;;
53115;SDS011;39010;48.088;7.954;2022-12-15T05:06:06;79.75;;;32.13;;
53115;SDS011;39010;48.088;7.954;2022-12-15T05:08:51;73.53;;;29.35;;
53115;SDS011;39010;48.088;7.954;2022-12-15T05:11:36;66.45;;;27.48;;
53115;SDS011;39010;48.088;7.954;2022-12-15T05:14:22;66.53;;;27.50;;
53115;SDS011;39010;48.088;7.954;2022-12-15T05:17:06;69.13;;;27.98;;
53115;SDS011;39010;48.088;7.954;2022-12-15T05:19:51;65.28;;;27.40;;
53115;SDS011;39010;48.088;7.954;2022-12-15T05:22:36;68.72;;;28.23;;
53115;SDS011;39010;48.088;7.954;2022-12-15T05:25:21;63.70;;;26.83;;
53115;SDS011;39010;48.088;7.954;2022-12-15T05:28:07;64.57;;;28.48;;
53115;SDS011;39010;48.088;7.954;2022-12-15T05:30:51;74.03;;;28.17;;
53115;SDS011;39010;48.088;7.954;2022-12-15T05:33:37;74.65;;;29.40;;
53115;SDS011;39010;48.088;7.954;2022-12-15T05:36:03;66.53;;;29.10;;
53115;SDS011;39010;48.088;7.954;2022-12-15T05:38:30;68.75;;;28.63;;
53115;SDS011;39010;48.088;7.954;2022-12-15T05:43:25;69.25;;;28.25;;
53115;SDS011;39010;48.088;7.954;2022-12-15T05:45:54;69.82;;;27.70;;
53115;SDS011;39010;48.088;7.954;2022-12-15T05:48:20;64.45;;;28.52;;
53115;SDS011;39010;48.088;7.954;2022-12-15T05:50:48;66.70;;;28.15;;
53115;SDS011;39010;48.088;7.954;2022-12-15T05:53:15;67.82;;;27.77;;
53115;SDS011;39010;48.088;7.954;2022-12-15T05:58:08;61.60;;;27.67;;
53115;SDS011;39010;48.088;7.954;2022-12-15T06:03:02;65.27;;;28.87;;
53115;SDS011;39010;48.088;7.954;2022-12-15T06:05:29;68.78;;;27.17;;
53115;SDS011;39010;48.088;7.954;2022-12-15T06:07:55;69.47;;;27.13;;
53115;SDS011;39010;48.088;7.954;2022-12-15T06:10:22;71.65;;;28.98;;
53115;SDS011;39010;48.088;7.954;2022-12-15T06:12:48;63.55;;;28.38;;
53115;SDS011;39010;48.088;7.954;2022-12-15T06:15:15;66.68;;;27.98;;
53115;SDS011;39010;48.088;7.954;2022-12-15T06:20:08;63.95;;;28.05;;
53115;SDS011;39010;48.088;7.954;2022-12-15T06:22:35;67.60;;;28.63;;
53115;SDS011;39010;48.088;7.954;2022-12-15T06:25:02;65.72;;;28.73;;
53115;SDS011;39010;48.088;7.954;2022-12-15T06:27:28;68.30;;;28.25;;
53115;SDS011;39010;48.088;7.954;2022-12-15T06:29:55;70.50;;;28.17;;
53115;SDS011;39010;48.088;7.954;2022-12-15T06:32:21;71.75;;;29.25;;
53115;SDS011;39010;48.088;7.954;2022-12-15T06:34:48;69.85;;;29.15;;
53115;SDS011;39010;48.088;7.954;2022-12-15T06:37:15;72.38;;;30.60;;
53115;SDS011;39010;48.088;7.954;2022-12-15T06:42:08;77.05;;;31.25;;
53115;SDS011;39010;48.088;7.954;2022-12-15T06:47:00;80.35;;;31.23;;
53115;SDS011;39010;48.088;7.954;2022-12-15T06:51:53;75.53;;;31.27;;
53115;SDS011;39010;48.088;7.954;2022-12-15T06:54:20;74.72;;;29.17;;
53115;SDS011;39010;48.088;7.954;2022-12-15T06:56:47;81.60;;;32.22;;
53115;SDS011;39010;48.088;7.954;2022-12-15T06:59:15;72.13;;;30.60;;
53115;SDS011;39010;48.088;7.954;2022-12-15T07:01:41;71.95;;;29.95;;
53115;SDS011;39010;48.088;7.954;2022-12-15T07:04:08;73.72;;;30.98;;
53115;SDS011;39010;48.088;7.954;2022-12-15T07:06:36;74.70;;;30.75;;
53115;SDS011;39010;48.088;7.954;2022-12-15T07:09:05;74.95;;;31.23;;
53115;SDS011;39010;48.088;7.954;2022-12-15T07:11:33;77.55;;;30.98;;
53115;SDS011;39010;48.088;7.954;2022-12-15T07:14:00;76.07;;;32.25;;
53115;SDS011;39010;48.088;7.954;2022-12-15T07:16:27;76.95;;;30.88;;
53115;SDS011;39010;48.088;7.954;2022-12-15T07:18:54;84.65;;;33.22;;
53115;SDS011;39010;48.088;7.954;2022-12-15T07:21:20;81.13;;;34.22;;
53115;SDS011;39010;48.088;7.954;2022-12-15T07:23:47;82.95;;;33.78;;
53115;SDS011;39010;48.088;7.954;2022-12-15T07:26:23;78.00;;;32.85;;
53115;SDS011;39010;48.088;7.954;2022-12-15T07:28:50;75.88;;;32.25;;
53115;SDS011;39010;48.088;7.954;2022-12-15T07:31:16;78.75;;;32.08;;
53115;SDS011;39010;48.088;7.954;2022-12-15T07:33:43;76.20;;;31.83;;
53115;SDS011;39010;48.088;7.954;2022-12-15T07:38:36;84.72;;;32.67;;
53115;SDS011;39010;48.088;7.954;2022-12-15T07:41:04;75.90;;;32.60;;
53115;SDS011;39010;48.088;7.954;2022-12-15T07:43:32;78.57;;;31.27;;
53115;SDS011;39010;48.088;7.954;2022-12-15T07:46:00;85.53;;;34.80;;
53115;SDS011;39010;48.088;7.954;2022-12-15T07:48:27;79.15;;;32.78;;
53115;SDS011;39010;48.088;7.954;2022-12-15T07:53:34;86.03;;;33.97;;
53115;SDS011;39010;48.088;7.954;2022-12-15T07:56:01;87.03;;;34.13;;
53115;SDS011;39010;48.088;7.954;2022-12-15T07:58:35;87.80;;;34.45;;
53115;SDS011;39010;48.088;7.954;2022-12-15T08:01:03;91.47;;;34.55;;
53115;SDS011;39010;48.088;7.954;2022-12-15T08:03:32;89.95;;;35.20;;
53115;SDS011;39010;48.088;7.954;2022-12-15T08:06:07;88.22;;;33.70;;
53115;SDS011;39010;48.088;7.954;2022-12-15T08:08:36;90.30;;;35.28;;
53115;SDS011;39010;48.088;7.954;2022-12-15T08:11:04;85.55;;;33.22;;
53115;SDS011;39010;48.088;7.954;2022-12-15T08:13:35;79.40;;;33.40;;
53115;SDS011;39010;48.088;7.954;2022-12-15T08:16:23;86.45;;;34.80;;
53115;SDS011;39010;48.088;7.954;2022-12-15T08:18:50;89.50;;;34.17;;
53115;SDS011;39010;48.088;7.954;2022-12-15T08:21:17;103.32;;;38.17;;
53115;SDS011;39010;48.088;7.954;2022-12-15T08:23:43;85.30;;;34.78;;
53115;SDS011;39010;48.088;7.954;2022-12-15T08:26:11;86.35;;;34.60;;
53115;SDS011;39010;48.088;7.954;2022-12-15T08:28:41;83.95;;;34.38;;
53115;SDS011;39010;48.088;7.954;2022-12-15T08:31:09;95.50;;;35.80;;
53115;SDS011;39010;48.088;7.954;2022-12-15T08:33:40;97.97;;;37.53;;
53115;SDS011;39010;48.088;7.954;2022-12-15T08:36:08;89.97;;;35.58;;
53115;SDS011;39010;48.088;7.954;2022-12-15T08:38:36;96.75;;;37.45;;
53115;SDS011;39010;48.088;7.954;2022-12-15T08:41:08;89.25;;;34.20;;
53115;SDS011;39010;48.088;7.954;2022-12-15T08:43:37;91.95;;;34.88;;
53115;SDS011;39010;48.088;7.954;2022-12-15T08:46:14;95.88;;;36.22;;
53115;SDS011;39010;48.088;7.954;2022-12-15T08:48:42;87.15;;;35.28;;
53115;SDS011;39010;48.088;7.954;2022-12-15T08:53:35;94.83;;;35.90;;
53115;SDS011;39010;48.088;7.954;2022-12-15T08:56:05;83.88;;;34.28;;
53115;SDS011;39010;48.088;7.954;2022-12-15T08:58:34;96.28;;;37.20;;
53115;SDS011;39010;48.088;7.954;2022-12-15T09:01:01;89.70;;;34.85;;
53115;SDS011;39010;48.088;7.954;2022-12-15T09:03:29;91.07;;;36.45;;
53115;SDS011;39010;48.088;7.954;2022-12-15T09:06:00;90.72;;;34.72;;
53115;SDS011;39010;48.088;7.954;2022-12-15T09:08:28;96.65;;;36.95;;
53115;SDS011;39010;48.088;7.954;2022-12-15T09:10:56;83.22;;;34.63;;
53115;SDS011;39010;48.088;7.954;2022-12-15T09:13:24;89.72;;;35.45;;
53115;SDS011;39010;48.088;7.954;2022-12-15T09:15:55;83.82;;;34.03;;
53115;SDS011;39010;48.088;7.954;2022-12-15T09:18:35;83.63;;;35.38;;
53115;SDS011;39010;48.088;7.954;2022-12-15T09:21:03;92.95;;;34.92;;
53115;SDS011;39010;48.088;7.954;2022-12-15T09:23:31;96.88;;;37.53;;
53115;SDS011;39010;48.088;7.954;2022-12-15T09:26:00;86.70;;;33.75;;
53115;SDS011;39010;48.088;7.954;2022-12-15T09:28:28;81.97;;;32.80;;
53115;SDS011;39010;48.088;7.954;2022-12-15T09:31:08;84.13;;;33.35;;
53115;SDS011;39010;48.088;7.954;2022-12-15T09:33:37;84.35;;;33.40;;
53115;SDS011;39010;48.088;7.954;2022-12-15T09:36:05;86.53;;;34.35;;
53115;SDS011;39010;48.088;7.954;2022-12-15T09:38:33;83.80;;;32.92;;
53115;SDS011;39010;48.088;7.954;2022-12-15T09:43:41;89.32;;;35.25;;
53115;SDS011;39010;48.088;7.954;2022-12-15T09:48:49;93.53;;;36.28;;
53115;SDS011;39010;48.088;7.954;2022-12-15T09:51:18;93.65;;;37.58;;
53115;SDS011;39010;48.088;7.954;2022-12-15T09:53:45;92.93;;;35.83;;
53115;SDS011;39010;48.088;7.954;2022-12-15T09:56:36;93.78;;;36.80;;
53115;SDS011;39010;48.088;7.954;2022-12-15T09:59:18;93.20;;;36.00;;
53115;SDS011;39010;48.088;7.954;2022-12-15T10:07:05;106.63;;;39.88;;
53115;SDS011;39010;48.088;7.954;2022-12-15T10:09:39;95.97;;;35.88;;
53115;SDS011;39010;48.088;7.954;2022-12-15T10:12:22;99.07;;;36.63;;
53115;SDS011;39010;48.088;7.954;2022-12-15T10:17:53;104.05;;;38.90;;
53115;SDS011;39010;48.088;7.954;2022-12-15T10:20:27;108.15;;;39.67;;
53115;SDS011;39010;48.088;7.954;2022-12-15T10:22:56;104.82;;;38.65;;
53115;SDS011;39010;48.088;7.954;2022-12-15T10:25:35;110.20;;;39.78;;
53115;SDS011;39010;48.088;7.954;2022-12-15T10:30:56;106.03;;;39.13;;
53115;SDS011;39010;48.088;7.954;2022-12-15T10:33:26;122.45;;;44.78;;
53115;SDS011;39010;48.088;7.954;2022-12-15T10:36:00;113.30;;;38.38;;
53115;SDS011;39010;48.088;7.954;2022-12-15T10:38:34;111.57;;;41.00;;
53115;SDS011;39010;48.088;7.954;2022-12-15T10:41:21;109.15;;;40.15;;
53115;SDS011;39010;48.088;7.954;2022-12-15T10:43:51;103.40;;;40.25;;
53115;SDS011;39010;48.088;7.954;2022-12-15T10:46:24;100.57;;;37.20;;
53115;SDS011;39010;48.088;7.954;2022-12-15T10:48:55;96.97;;;38.17;;
53115;SDS011;39010;48.088;7.954;2022-12-15T10:51:30;91.35;;;35.47;;
53115;SDS011;39010;48.088;7.954;2022-12-15T10:56:48;94.90;;;36.28;;
53115;SDS011;39010;48.088;7.954;2022-12-15T10:59:32;89.20;;;36.83;;
53115;SDS011;39010;48.088;7.954;2022-12-15T11:05:15;84.38;;;34.22;;
53115;SDS011;39010;48.088;7.954;2022-12-15T11:07:49;81.50;;;32.83;;
53115;SDS011;39010;48.088;7.954;2022-12-15T11:10:22;83.30;;;33.38;;
53115;SDS011;39010;48.088;7.954;2022-12-15T11:12:54;83.45;;;33.45;;
53115;SDS011;39010;48.088;7.954;2022-12-15T11:15:44;81.20;;;33.33;;
53115;SDS011;39010;48.088;7.954;2022-12-15T11:18:18;82.47;;;33.53;;
53115;SDS011;39010;48.088;7.954;2022-12-15T11:23:52;84.43;;;33.50;;
53115;SDS011;39010;48.088;7.954;2022-12-15T11:32:39;80.75;;;32.58;;
53115;SDS011;39010;48.088;7.954;2022-12-15T11:35:14;82.00;;;33.85;;
53115;SDS011;39010;48.088;7.954;2022-12-15T11:37:50;86.97;;;34.75;;
53115;SDS011;39010;48.088;7.954;2022-12-15T11:40:39;82.75;;;33.65;;
53115;SDS011;39010;48.088;7.954;2022-12-15T11:51:57;90.65;;;36.25;;
53115;SDS011;39010;48.088;7.954;2022-12-15T11:55:15;85.40;;;34.80;;
53115;SDS011;39010;48.088;7.954;2022-12-15T12:00:34;98.28;;;37.03;;
53115;SDS011;39010;48.088;7.954;2022-12-15T12:11:53;119.72;;;39.88;;
53115;SDS011;39010;48.088;7.954;2022-12-15T12:14:34;102.53;;;39.63;;
53115;SDS011;39010;48.088;7.954;2022-12-15T12:20:17;116.00;;;41.10;;
53115;SDS011;39010;48.088;7.954;2022-12-15T12:25:27;116.82;;;39.92;;
53115;SDS011;39010;48.088;7.954;2022-12-15T12:27:59;111.97;;;39.38;;
53115;SDS011;39010;48.088;7.954;2022-12-15T12:30:37;109.63;;;41.75;;
53115;SDS011;39010;48.088;7.954;2022-12-15T12:33:24;113.72;;;41.45;;
53115;SDS011;39010;48.088;7.954;2022-12-15T12:36:14;112.82;;;38.72;;
53115;SDS011;39010;48.088;7.954;2022-12-15T12:38:46;113.70;;;40.50;;
53115;SDS011;39010;48.088;7.954;2022-12-15T12:41:22;112.15;;;39.30;;
53115;SDS011;39010;48.088;7.954;2022-12-15T12:43:51;107.18;;;38.10;;
53115;SDS011;39010;48.088;7.954;2022-12-15T12:46:31;97.70;;;37.03;;
53115;SDS011;39010;48.088;7.954;2022-12-15T12:51:28;96.00;;;34.88;;
53115;SDS011;39010;48.088;7.954;2022-12-15T12:53:59;106.93;;;36.92;;
53115;SDS011;39010;48.088;7.954;2022-12-15T12:59:02;107.88;;;39.38;;
53115;SDS011;39010;48.088;7.954;2022-12-15T13:01:35;100.00;;;36.28;;
53115;SDS011;39010;48.088;7.954;2022-12-15T13:04:37;97.95;;;36.95;;
53115;SDS011;39010;48.088;7.954;2022-12-15T13:07:00;103.53;;;36.83;;
53115;SDS011;39010;48.088;7.954;2022-12-15T13:09:40;96.53;;;37.53;;
53115;SDS011;39010;48.088;7.954;2022-12-15T13:18:09;102.22;;;38.08;;
53115;SDS011;39010;48.088;7.954;2022-12-15T13:20:41;104.82;;;39.88;;
53115;SDS011;39010;48.088;7.954;2022-12-15T13:25:45;110.55;;;41.38;;
53115;SDS011;39010;48.088;7.954;2022-12-15T13:39:07;122.05;;;41.28;;
53115;SDS011;39010;48.088;7.954;2022-12-15T13:44:39;134.88;;;46.70;;
53115;SDS011;39010;48.088;7.954;2022-12-15T13:47:21;134.02;;;43.58;;
53115;SDS011;39010;48.088;7.954;2022-12-15T13:50:00;142.73;;;44.83;;
53115;SDS011;39010;48.088;7.954;2022-12-15T13:52:50;141.40;;;47.53;;
53115;SDS011;39010;48.088;7.954;2022-12-15T13:55:40;131.23;;;47.60;;
53115;SDS011;39010;48.088;7.954;2022-12-15T13:58:17;133.40;;;43.83;;
53115;SDS011;39010;48.088;7.954;2022-12-15T14:00:50;128.43;;;43.20;;
53115;SDS011;39010;48.088;7.954;2022-12-15T14:03:18;131.98;;;43.95;;
53115;SDS011;39010;48.088;7.954;2022-12-15T14:08:19;124.95;;;41.88;;
53115;SDS011;39010;48.088;7.954;2022-12-15T14:10:49;135.70;;;44.05;;
53115;SDS011;39010;48.088;7.954;2022-12-15T14:13:32;125.20;;;43.30;;
53115;SDS011;39010;48.088;7.954;2022-12-15T14:16:02;143.40;;;47.72;;
53115;SDS011;39010;48.088;7.954;2022-12-15T14:18:40;146.73;;;48.60;;
53115;SDS011;39010;48.088;7.954;2022-12-15T14:21:23;146.90;;;47.28;;
53115;SDS011;39010;48.088;7.954;2022-12-15T14:23:55;137.32;;;43.03;;
53115;SDS011;39010;48.088;7.954;2022-12-15T14:26:46;136.75;;;44.33;;
53115;SDS011;39010;48.088;7.954;2022-12-15T14:29:15;141.45;;;47.20;;
53115;SDS011;39010;48.088;7.954;2022-12-15T14:31:43;143.52;;;44.47;;
53115;SDS011;39010;48.088;7.954;2022-12-15T14:37:16;127.07;;;44.17;;
53115;SDS011;39010;48.088;7.954;2022-12-15T14:39:46;131.95;;;45.03;;
53115;SDS011;39010;48.088;7.954;2022-12-15T14:42:20;130.20;;;42.95;;
53115;SDS011;39010;48.088;7.954;2022-12-15T14:44:49;144.98;;;42.65;;
53115;SDS011;39010;48.088;7.954;2022-12-15T14:47:24;139.70;;;45.30;;
53115;SDS011;39010;48.088;7.954;2022-12-15T14:49:54;141.48;;;45.75;;
53115;SDS011;39010;48.088;7.954;2022-12-15T14:54:58;139.00;;;43.20;;
53115;SDS011;39010;48.088;7.954;2022-12-15T14:57:29;144.10;;;45.88;;
53115;SDS011;39010;48.088;7.954;2022-12-15T15:08:41;155.82;;;49.65;;
53115;SDS011;39010;48.088;7.954;2022-12-15T15:11:20;162.38;;;49.85;;
53115;SDS011;39010;48.088;7.954;2022-12-15T15:13:55;158.05;;;48.35;;
53115;SDS011;39010;48.088;7.954;2022-12-15T15:16:30;161.30;;;49.20;;
53115;SDS011;39010;48.088;7.954;2022-12-15T15:18:58;154.98;;;48.80;;
53115;SDS011;39010;48.088;7.954;2022-12-15T15:21:28;156.63;;;49.40;;
53115;SDS011;39010;48.088;7.954;2022-12-15T15:26:30;157.02;;;47.08;;
53115;SDS011;39010;48.088;7.954;2022-12-15T15:28:57;170.73;;;51.00;;
53115;SDS011;39010;48.088;7.954;2022-12-15T15:33:50;159.60;;;49.80;;
53115;SDS011;39010;48.088;7.954;2022-12-15T15:36:18;160.77;;;49.83;;
53115;SDS011;39010;48.088;7.954;2022-12-15T15:38:44;191.50;;;52.70;;
53115;SDS011;39010;48.088;7.954;2022-12-15T15:41:16;179.38;;;51.67;;
53115;SDS011;39010;48.088;7.954;2022-12-15T15:43:43;188.00;;;52.75;;
53115;SDS011;39010;48.088;7.954;2022-12-15T15:46:11;168.43;;;50.80;;
53115;SDS011;39010;48.088;7.954;2022-12-15T15:48:46;176.45;;;52.78;;
53115;SDS011;39010;48.088;7.954;2022-12-15T15:51:16;176.70;;;50.97;;
53115;SDS011;39010;48.088;7.954;2022-12-15T15:53:43;173.15;;;54.13;;
53115;SDS011;39010;48.088;7.954;2022-12-15T15:56:11;191.20;;;53.40;;
53115;SDS011;39010;48.088;7.954;2022-12-15T15:58:40;173.07;;;49.95;;
53115;SDS011;39010;48.088;7.954;2022-12-15T16:01:09;198.52;;;55.72;;
53115;SDS011;39010;48.088;7.954;2022-12-15T16:03:38;191.43;;;53.30;;
53115;SDS011;39010;48.088;7.954;2022-12-15T16:06:10;179.43;;;56.53;;
53115;SDS011;39010;48.088;7.954;2022-12-15T16:08:45;175.13;;;50.58;;
53115;SDS011;39010;48.088;7.954;2022-12-15T16:11:14;167.75;;;52.17;;
53115;SDS011;39010;48.088;7.954;2022-12-15T16:16:13;186.93;;;52.58;;
53115;SDS011;39010;48.088;7.954;2022-12-15T16:21:11;169.73;;;50.47;;
53115;SDS011;39010;48.088;7.954;2022-12-15T16:23:39;182.30;;;52.53;;
53115;SDS011;39010;48.088;7.954;2022-12-15T16:26:09;185.25;;;53.53;;
53115;SDS011;39010;48.088;7.954;2022-12-15T16:28:40;181.93;;;52.28;;
53115;SDS011;39010;48.088;7.954;2022-12-15T16:31:07;179.13;;;51.65;;
53115;SDS011;39010;48.088;7.954;2022-12-15T16:34:04;184.10;;;53.15;;
53115;SDS011;39010;48.088;7.954;2022-12-15T16:38:57;172.65;;;52.35;;
53115;SDS011;39010;48.088;7.954;2022-12-15T16:43:54;180.90;;;52.92;;
53115;SDS011;39010;48.088;7.954;2022-12-15T16:48:47;167.68;;;49.30;;
53115;SDS011;39010;48.088;7.954;2022-12-15T16:51:22;177.63;;;54.60;;
53115;SDS011;39010;48.088;7.954;2022-12-15T16:53:56;159.55;;;50.65;;
53115;SDS011;39010;48.088;7.954;2022-12-15T16:56:23;178.13;;;51.45;;
53115;SDS011;39010;48.088;7.954;2022-12-15T16:58:49;171.43;;;49.17;;
53115;SDS011;39010;48.088;7.954;2022-12-15T17:01:33;176.23;;;52.15;;
53115;SDS011;39010;48.088;7.954;2022-12-15T17:04:05;159.60;;;47.97;;
53115;SDS011;39010;48.088;7.954;2022-12-15T17:06:32;174.45;;;50.17;;
53115;SDS011;39010;48.088;7.954;2022-12-15T17:08:58;160.68;;;49.72;;
53115;SDS011;39010;48.088;7.954;2022-12-15T17:11:26;167.45;;;49.83;;
53115;SDS011;39010;48.088;7.954;2022-12-15T17:13:57;162.07;;;47.97;;
53115;SDS011;39010;48.088;7.954;2022-12-15T17:16:26;155.40;;;48.38;;
53115;SDS011;39010;48.088;7.954;2022-12-15T17:18:53;182.57;;;46.88;;
53115;SDS011;39010;48.088;7.954;2022-12-15T17:21:34;174.23;;;50.83;;
53115;SDS011;39010;48.088;7.954;2022-12-15T17:24:10;169.60;;;48.10;;
53115;SDS011;39010;48.088;7.954;2022-12-15T17:26:41;176.13;;;50.47;;
53115;SDS011;39010;48.088;7.954;2022-12-15T17:29:13;177.60;;;49.63;;
53115;SDS011;39010;48.088;7.954;2022-12-15T17:31:44;167.77;;;48.92;;
53115;SDS011;39010;48.088;7.954;2022-12-15T17:36:44;200.90;;;52.60;;
53115;SDS011;39010;48.088;7.954;2022-12-15T17:39:11;184.63;;;50.95;;
53115;SDS011;39010;48.088;7.954;2022-12-15T17:41:39;174.63;;;48.33;;
53115;SDS011;39010;48.088;7.954;2022-12-15T17:44:26;170.55;;;48.47;;
53115;SDS011;39010;48.088;7.954;2022-12-15T17:47:04;171.90;;;52.58;;
53115;SDS011;39010;48.088;7.954;2022-12-15T17:49:33;174.43;;;49.80;;
53115;SDS011;39010;48.088;7.954;2022-12-15T17:52:04;146.07;;;48.20;;
53115;SDS011;39010;48.088;7.954;2022-12-15T17:54:52;169.40;;;49.22;;
53115;SDS011;39010;48.088;7.954;2022-12-15T17:57:20;161.68;;;47.83;;
53115;SDS011;39010;48.088;7.954;2022-12-15T17:59:46;151.88;;;46.95;;
53115;SDS011;39010;48.088;7.954;2022-12-15T18:02:13;152.57;;;47.65;;